Time;durP1;ratioP1;P1;durP2;ratioP2;P2;SDS_P1;SDS_P2;PMS_P1;PMS_P2;Temp;Humidity;BMP_temperature;BMP_pressure;BME280_temperature;BME280_humidity;BME280_pressure;Samples;Min_cycle;Max_cycle;Signal;HPM_P1;HPM_P2
2023/12/07 00:00:34;;;;;;;2.50;1.60;;;4.80;99.90;;;;;;4845490;29;20570;-75
2023/12/07 00:03:02;;;;;;;1.97;1.60;;;4.80;99.90;;;;;;4845411;29;20448;-74
2023/12/07 00:05:30;;;;;;;5.13;3.87;;;4.70;99.90;;;;;;4845240;29;20475;-74
2023/12/07 00:07:59;;;;;;;0.87;0.50;;;4.80;99.90;;;;;;4844637;29;20464;-76
2023/12/07 00:10:27;;;;;;;0.80;0.70;;;4.70;99.90;;;;;;4845678;29;20451;-75
2023/12/07 00:12:55;;;;;;;0.70;0.40;;;4.70;99.90;;;;;;4845191;29;20454;-74
2023/12/07 00:15:23;;;;;;;1.80;1.70;;;4.80;99.90;;;;;;4845277;29;20479;-75
2023/12/07 00:17:50;;;;;;;0.60;0.10;;;4.80;99.90;;;;;;4845006;29;20460;-75
2023/12/07 00:20:18;;;;;;;2.20;1.03;;;4.80;99.90;;;;;;4845309;29;20483;-74
2023/12/07 00:22:46;;;;;;;12.17;4.57;;;4.80;99.90;;;;;;4845195;29;20544;-75
2023/12/07 00:25:15;;;;;;;0.60;0.20;;;4.90;99.90;;;;;;4845086;29;20456;-75
2023/12/07 00:27:44;;;;;;;0.60;0.10;;;4.90;99.90;;;;;;4844768;29;20472;-75
2023/12/07 00:30:12;;;;;;;1.10;0.57;;;5.00;99.90;;;;;;4844852;29;20871;-75
2023/12/07 00:32:43;;;;;;;1.27;1.13;;;5.00;99.90;;;;;;4844495;29;20451;-75
2023/12/07 00:35:11;;;;;;;1.17;1.07;;;5.00;99.90;;;;;;4844437;29;20971;-74
2023/12/07 00:37:39;;;;;;;0.60;0.10;;;5.10;99.90;;;;;;4844556;29;20475;-74
2023/12/07 00:40:08;;;;;;;0.70;0.50;;;5.10;99.90;;;;;;4844624;29;20533;-75
2023/12/07 00:42:37;;;;;;;1.33;1.23;;;5.10;99.90;;;;;;4844538;29;20461;-76
2023/12/07 00:45:06;;;;;;;0.60;0.20;;;5.10;99.90;;;;;;4844624;29;20478;-75
2023/12/07 00:47:34;;;;;;;0.70;0.50;;;5.10;99.90;;;;;;4844120;29;20495;-75
2023/12/07 00:50:01;;;;;;;0.60;0.40;;;5.10;99.90;;;;;;4844313;29;20444;-76
2023/12/07 00:52:29;;;;;;;1.33;1.23;;;5.10;99.90;;;;;;4844405;29;20456;-76
2023/12/07 00:54:57;;;;;;;0.60;0.10;;;5.10;99.90;;;;;;4844297;29;20502;-75
2023/12/07 00:57:40;;;;;;;0.70;0.50;;;5.10;99.90;;;;;;4843855;29;20475;-74
2023/12/07 01:00:10;;;;;;;0.60;0.10;;;5.10;99.90;;;;;;4843995;29;20545;-75
2023/12/07 01:02:38;;;;;;;0.60;0.10;;;5.20;99.90;;;;;;4844013;29;21024;-73
2023/12/07 01:05:06;;;;;;;1.63;0.97;;;5.10;99.90;;;;;;4844081;29;20509;-75
2023/12/07 01:07:34;;;;;;;0.60;0.10;;;5.10;99.90;;;;;;4843429;29;21168;-75
2023/12/07 01:10:02;;;;;;;0.60;0.20;;;5.10;99.90;;;;;;4843952;29;20455;-75
2023/12/07 01:12:30;;;;;;;0.60;0.10;;;5.00;99.90;;;;;;4844189;29;20480;-75
2023/12/07 01:14:59;;;;;;;1.90;1.17;;;4.90;99.90;;;;;;4845103;29;20479;-75
2023/12/07 01:17:29;;;;;;;0.60;0.20;;;4.80;99.90;;;;;;4844948;29;20500;-74
2023/12/07 01:19:57;;;;;;;0.70;0.37;;;4.80;99.90;;;;;;4845179;29;20531;-76
2023/12/07 01:22:25;;;;;;;0.60;0.10;;;;;;;;;;4845106;29;21011;-75
2023/12/07 01:24:53;;;;;;;0.60;0.30;;;4.80;99.90;;;;;;4845124;29;20463;-75
2023/12/07 01:27:21;;;;;;;0.60;0.30;;;4.70;99.90;;;;;;4844452;29;20853;-75
2023/12/07 01:29:49;;;;;;;1.53;1.43;;;4.60;99.90;;;;;;4844268;29;20525;-73
2023/12/07 01:32:18;;;;;;;0.60;0.10;;;4.70;99.90;;;;;;4841332;29;20489;-75
2023/12/07 01:34:46;;;;;;;1.13;0.93;;;4.70;99.90;;;;;;4843433;29;20491;-76
2023/12/07 01:37:14;;;;;;;0.60;0.20;;;4.70;99.90;;;;;;4843231;29;20468;-75
2023/12/07 01:39:42;;;;;;;0.60;0.10;;;4.80;99.90;;;;;;4843718;29;21016;-75
2023/12/07 01:42:11;;;;;;;0.60;0.10;;;4.80;99.90;;;;;;4843578;29;20597;-75
2023/12/07 01:44:40;;;;;;;0.60;0.10;;;4.80;99.90;;;;;;4849473;29;20911;-75
2023/12/07 01:47:10;;;;;;;0.60;0.10;;;8.00;99.90;;;;;;4854633;29;20539;-73
2023/12/07 01:49:40;;;;;;;0.60;0.10;;;4.80;99.90;;;;;;4851930;29;20785;-74
2023/12/07 01:52:09;;;;;;;0.60;0.10;;;4.80;99.90;;;;;;4849292;29;20444;-74
2023/12/07 01:54:38;;;;;;;0.60;0.10;;;4.80;99.90;;;;;;4849549;29;20516;-75
2023/12/07 01:57:07;;;;;;;0.60;0.10;;;4.80;99.90;;;;;;4848841;29;20576;-74
2023/12/07 01:59:35;;;;;;;0.60;0.10;;;4.80;99.90;;;;;;4849097;29;20448;-75
2023/12/07 02:02:03;;;;;;;0.60;0.10;;;4.80;99.90;;;;;;4849339;29;20532;-75
2023/12/07 02:04:31;;;;;;;1.10;0.60;;;4.80;99.90;;;;;;4849030;29;20531;-75
2023/12/07 02:07:02;;;;;;;3.70;3.50;;;4.80;99.90;;;;;;4848585;29;20471;-75
2023/12/07 02:09:31;;;;;;;0.60;0.20;;;4.70;99.90;;;;;;4847747;29;20444;-74
2023/12/07 02:12:00;;;;;;;0.60;0.10;;;4.70;99.90;;;;;;4849332;29;20972;-74
2023/12/07 02:14:28;;;;;;;2.70;2.00;;;4.70;99.90;;;;;;4848898;29;20501;-73
2023/12/07 02:17:02;;;;;;;0.60;0.10;;;4.60;99.90;;;;;;4848741;29;20475;-73
2023/12/07 02:19:49;;;;;;;0.60;0.10;;;4.60;99.90;;;;;;4848769;29;20451;-75
2023/12/07 02:22:25;;;;;;;0.70;0.10;;;4.60;99.90;;;;;;4848906;29;20494;-76
2023/12/07 02:25:06;;;;;;;0.70;0.10;;;4.60;99.90;;;;;;4848834;29;20567;-75
2023/12/07 02:27:40;;;;;;;0.60;0.10;;;;;;;;;;4849207;29;20479;-75
2023/12/07 02:30:09;;;;;;;0.60;0.10;;;4.50;99.90;;;;;;4848951;29;20531;-75
2023/12/07 02:32:37;;;;;;;0.60;0.10;;;4.50;99.90;;;;;;4848290;29;20443;-75
2023/12/07 02:35:06;;;;;;;0.60;0.10;;;4.50;99.90;;;;;;4848008;29;20452;-75
2023/12/07 02:37:39;;;;;;;0.60;0.10;;;4.50;99.90;;;;;;4847592;29;20554;-75
2023/12/07 02:40:10;;;;;;;0.70;0.47;;;4.50;99.90;;;;;;4844069;29;20789;-75
2023/12/07 02:42:40;;;;;;;0.60;0.10;;;4.50;99.90;;;;;;4842690;29;20487;-76
2023/12/07 02:45:10;;;;;;;0.60;0.10;;;4.50;99.90;;;;;;4843419;29;20866;-75
2023/12/07 02:47:38;;;;;;;0.60;0.10;;;4.50;99.90;;;;;;4841562;29;20500;-75
2023/12/07 02:50:08;;;;;;;0.60;0.10;;;4.40;99.90;;;;;;4842628;29;20456;-76
2023/12/07 02:52:36;;;;;;;0.60;0.10;;;4.40;99.90;;;;;;4844976;29;20436;-76
2023/12/07 02:55:05;;;;;;;0.60;0.10;;;4.40;99.90;;;;;;4845505;29;20543;-75
2023/12/07 02:57:34;;;;;;;0.60;0.10;;;4.40;99.90;;;;;;4846214;29;20479;-74
2023/12/07 03:00:06;;;;;;;1.47;1.37;;;4.30;99.90;;;;;;4846147;29;20456;-72
2023/12/07 03:02:35;;;;;;;0.60;0.10;;;4.40;99.90;;;;;;4845035;29;20488;-72
2023/12/07 03:05:03;;;;;;;2.93;1.43;;;4.40;99.90;;;;;;4845192;29;21099;-72
2023/12/07 03:07:31;;;;;;;0.70;0.40;;;;;;;;;;4846777;29;20480;-73
2023/12/07 03:09:59;;;;;;;0.60;0.10;;;4.30;99.90;;;;;;4846380;29;20492;-73
2023/12/07 03:12:28;;;;;;;0.80;0.77;;;4.20;99.90;;;;;;4847292;29;20456;-73
2023/12/07 03:14:56;;;;;;;0.60;0.10;;;4.10;99.90;;;;;;4847520;29;20546;-72
2023/12/07 03:17:25;;;;;;;0.60;0.10;;;4.00;99.90;;;;;;4847393;29;20528;-73
2023/12/07 03:19:53;;;;;;;0.60;0.17;;;;;;;;;;4847312;29;20452;-72
2023/12/07 03:22:21;;;;;;;0.60;0.10;;;4.00;99.90;;;;;;4847595;29;20561;-73
2023/12/07 03:24:52;;;;;;;0.60;0.10;;;4.00;99.90;;;;;;4840156;29;20467;-72
2023/12/07 03:27:20;;;;;;;0.60;0.20;;;4.00;99.90;;;;;;4847718;29;20472;-71
2023/12/07 03:29:48;;;;;;;0.60;0.10;;;3.80;99.90;;;;;;4852620;29;20493;-72
2023/12/07 03:32:16;;;;;;;0.60;0.10;;;3.80;99.90;;;;;;4846633;29;20451;-72
2023/12/07 03:34:45;;;;;;;0.60;0.10;;;3.90;99.90;;;;;;4853728;29;20456;-72
2023/12/07 03:37:13;;;;;;;0.60;0.10;;;3.90;99.90;;;;;;4853799;29;20475;-71
2023/12/07 03:39:41;;;;;;;0.60;0.10;;;4.00;99.90;;;;;;4853662;29;20455;-72
2023/12/07 03:42:09;;;;;;;0.60;0.10;;;4.00;99.90;;;;;;4853174;29;20573;-72
2023/12/07 03:44:57;;;;;;;4.93;2.43;;;4.00;99.90;;;;;;4851234;29;20451;-72
2023/12/07 03:47:25;;;;;;;0.60;0.10;;;4.00;99.90;;;;;;4849957;29;20814;-73
2023/12/07 03:49:54;;;;;;;0.60;0.20;;;3.90;99.90;;;;;;4849628;29;20483;-71
2023/12/07 03:52:22;;;;;;;0.60;0.10;;;3.90;99.90;;;;;;4848797;29;20458;-72
2023/12/07 03:54:50;;;;;;;0.60;0.10;;;3.90;99.90;;;;;;4848832;29;21170;-72
2023/12/07 03:57:17;;;;;;;0.60;0.10;;;3.80;99.90;;;;;;4847848;29;20479;-71
2023/12/07 03:59:46;;;;;;;0.70;0.40;;;3.80;99.90;;;;;;4847967;29;20560;-72
2023/12/07 04:02:14;;;;;;;0.60;0.10;;;3.80;99.90;;;;;;4848368;29;20495;-71
2023/12/07 04:04:42;;;;;;;0.60;0.10;;;3.80;99.90;;;;;;4848270;29;20543;-73
2023/12/07 04:07:11;;;;;;;0.60;0.13;;;3.90;99.90;;;;;;4847476;29;20467;-73
2023/12/07 04:09:39;;;;;;;3.30;0.97;;;3.80;99.90;;;;;;4848386;29;20936;-73
2023/12/07 04:12:07;;;;;;;0.80;0.40;;;3.70;99.90;;;;;;4847678;29;20456;-73
2023/12/07 04:14:35;;;;;;;0.60;0.10;;;3.70;99.90;;;;;;4848294;29;20565;-73
2023/12/07 04:17:03;;;;;;;0.70;0.53;;;3.70;99.90;;;;;;4847397;29;20508;-73
2023/12/07 04:19:31;;;;;;;0.60;0.20;;;3.70;99.90;;;;;;4847969;29;20451;-73
2023/12/07 04:21:59;;;;;;;0.60;0.10;;;3.80;99.90;;;;;;4847857;29;20848;-73
2023/12/07 04:24:28;;;;;;;0.60;0.17;;;3.90;99.90;;;;;;4847901;29;20455;-73
2023/12/07 04:26:56;;;;;;;0.60;0.10;;;3.90;99.90;;;;;;4847898;29;20467;-73
2023/12/07 04:29:24;;;;;;;0.60;0.10;;;;;;;;;;4857576;29;20487;-72
2023/12/07 04:31:52;;;;;;;0.60;0.30;;;3.90;99.90;;;;;;4853662;29;20543;-72
2023/12/07 04:34:20;;;;;;;3.43;1.30;;;3.90;99.90;;;;;;4852226;29;20452;-72
2023/12/07 04:36:48;;;;;;;0.70;0.43;;;3.90;99.90;;;;;;4847968;29;20472;-72
2023/12/07 04:39:16;;;;;;;0.60;0.10;;;4.00;99.90;;;;;;4840445;29;20462;-73
2023/12/07 04:41:45;;;;;;;0.60;0.10;;;;;;;;;;4844130;29;20524;-73
2023/12/07 04:44:14;;;;;;;0.60;0.10;;;4.00;99.90;;;;;;4845436;29;20440;-72
2023/12/07 04:46:43;;;;;;;0.97;0.83;;;4.00;99.90;;;;;;4845160;29;20503;-73
2023/12/07 04:49:11;;;;;;;1.17;1.07;;;4.00;99.90;;;;;;4844509;29;20458;-74
2023/12/07 04:51:39;;;;;;;1.40;0.93;;;3.90;99.90;;;;;;4844852;29;21017;-72
2023/12/07 04:54:07;;;;;;;0.70;0.47;;;3.80;99.90;;;;;;4845024;29;20460;-73
2023/12/07 04:56:47;;;;;;;2.00;1.30;;;3.70;99.90;;;;;;4844624;29;20983;-72
2023/12/07 04:59:16;;;;;;;0.80;0.53;;;3.70;99.90;;;;;;4838593;29;20472;-72
2023/12/07 05:01:45;;;;;;;0.60;0.10;;;;;;;;;;4843913;29;20791;-73
2023/12/07 05:04:13;;;;;;;0.60;0.20;;;3.50;99.90;;;;;;4844189;29;20567;-74
2023/12/07 05:06:41;;;;;;;0.60;0.10;;;3.50;99.90;;;;;;4844053;29;20484;-73
2023/12/07 05:09:11;;;;;;;0.60;0.10;;;3.50;99.90;;;;;;4836794;29;20459;-72
2023/12/07 05:11:45;;;;;;;0.60;0.10;;;3.60;99.90;;;;;;4844168;29;20843;-73
2023/12/07 05:14:14;;;;;;;0.60;0.10;;;3.60;99.90;;;;;;4844215;29;20512;-73
2023/12/07 05:16:42;;;;;;;0.60;0.10;;;3.70;99.90;;;;;;4843361;29;20474;-73
2023/12/07 05:19:11;;;;;;;0.60;0.10;;;3.80;99.90;;;;;;4835804;29;20448;-74
2023/12/07 05:21:41;;;;;;;2.37;2.10;;;3.80;99.90;;;;;;4843776;29;20444;-73
2023/12/07 05:24:09;;;;;;;0.60;0.10;;;3.90;99.90;;;;;;4841584;29;20579;-71
2023/12/07 05:26:36;;;;;;;0.60;0.10;;;3.80;99.90;;;;;;4830708;29;20535;-72
2023/12/07 05:29:04;;;;;;;0.60;0.10;;;3.90;99.90;;;;;;4842933;29;20563;-71
2023/12/07 05:31:33;;;;;;;0.60;0.10;;;3.90;99.90;;;;;;4842899;29;20468;-73
2023/12/07 05:34:01;;;;;;;0.60;0.10;;;3.90;99.90;;;;;;4843270;29;20823;-73
2023/12/07 05:36:30;;;;;;;0.60;0.10;;;;;;;;;;4843315;29;21027;-74
2023/12/07 05:38:58;;;;;;;0.60;0.10;;;;;;;;;;4843202;29;20483;-73
2023/12/07 05:41:26;;;;;;;0.60;0.10;;;;;;;;;;4843850;29;20542;-73
2023/12/07 05:43:55;;;;;;;0.60;0.10;;;3.90;99.90;;;;;;4843893;29;20586;-72
2023/12/07 05:46:22;;;;;;;14.87;13.77;;;3.90;99.90;;;;;;4843832;29;20514;-73
2023/12/07 05:48:52;;;;;;;0.60;0.20;;;;;;;;;;4842480;29;20948;-72
2023/12/07 05:51:24;;;;;;;0.60;0.10;;;3.80;99.90;;;;;;4843207;29;20491;-73
2023/12/07 05:53:52;;;;;;;0.60;0.10;;;3.90;99.90;;;;;;4843076;29;20460;-74
2023/12/07 05:56:21;;;;;;;0.60;0.17;;;3.80;99.90;;;;;;4835609;29;20552;-74
2023/12/07 05:58:49;;;;;;;0.77;0.43;;;3.80;99.90;;;;;;4842641;29;21043;-73
2023/12/07 06:01:18;;;;;;;0.70;0.63;;;3.70;99.90;;;;;;4843207;29;20452;-74
2023/12/07 06:03:47;;;;;;;1.43;1.33;;;3.70;99.90;;;;;;4843122;29;20530;-73
2023/12/07 06:06:16;;;;;;;0.70;0.20;;;3.70;99.90;;;;;;4843300;29;20896;-72
2023/12/07 06:08:45;;;;;;;0.60;0.20;;;;;;;;;;4842690;29;20452;-73
2023/12/07 06:11:13;;;;;;;0.70;0.33;;;3.60;99.90;;;;;;4842996;29;20538;-73
2023/12/07 06:13:41;;;;;;;0.60;0.10;;;3.60;99.90;;;;;;4843230;29;20448;-73
2023/12/07 06:16:13;;;;;;;0.80;0.20;;;;;;;;;;4843644;29;20483;-72
2023/12/07 06:18:41;;;;;;;0.60;0.10;;;;;;;;;;4843539;29;20456;-73
2023/12/07 06:21:10;;;;;;;1.80;1.03;;;;;;;;;;4845374;29;20823;-72
2023/12/07 06:23:39;;;;;;;0.60;0.10;;;;;;;;;;4846198;29;20563;-72
2023/12/07 06:26:07;;;;;;;0.60;0.10;;;3.60;99.90;;;;;;4845177;29;20456;-73
2023/12/07 06:28:35;;;;;;;0.60;0.10;;;;;;;;;;4844016;29;20476;-75
2023/12/07 06:31:08;;;;;;;0.60;0.10;;;;;;;;;;4843237;29;20458;-72
2023/12/07 06:33:36;;;;;;;0.60;0.10;;;;;;;;;;4843017;29;20452;-74
2023/12/07 06:36:05;;;;;;;0.60;0.20;;;3.60;99.90;;;;;;4842341;29;20455;-73
2023/12/07 06:38:33;;;;;;;1.73;1.33;;;3.50;99.90;;;;;;4842491;29;20982;-73
2023/12/07 06:41:02;;;;;;;2.40;2.30;;;3.50;99.90;;;;;;4843125;29;20488;-74
2023/12/07 06:43:30;;;;;;;0.70;0.40;;;3.50;99.90;;;;;;4842762;29;20591;-74
2023/12/07 06:45:58;;;;;;;0.60;0.10;;;3.50;99.90;;;;;;4842447;29;20452;-73
2023/12/07 06:48:26;;;;;;;0.60;0.20;;;3.40;99.90;;;;;;4842519;29;20977;-75
2023/12/07 06:50:55;;;;;;;1.90;1.17;;;3.40;99.90;;;;;;4843332;29;20460;-73
2023/12/07 06:53:22;;;;;;;3.53;3.30;;;3.40;99.90;;;;;;4843671;29;20551;-73
2023/12/07 06:55:51;;;;;;;1.07;0.50;;;;;;;;;;4842960;29;20812;-73
2023/12/07 06:58:20;;;;;;;0.60;0.20;;;3.30;99.90;;;;;;4841969;29;20475;-73
2023/12/07 07:00:49;;;;;;;0.60;0.20;;;3.20;99.90;;;;;;4842431;29;20460;-75
2023/12/07 07:03:17;;;;;;;2.50;1.57;;;3.20;99.90;;;;;;4839503;29;20473;-73
2023/12/07 07:05:45;;;;;;;0.60;0.20;;;3.10;99.90;;;;;;4841465;29;20456;-73
2023/12/07 07:08:13;;;;;;;0.60;0.10;;;;;;;;;;4842767;29;20563;-73
2023/12/07 07:10:42;;;;;;;0.90;0.40;;;;;;;;;;4843040;29;20452;-73
2023/12/07 07:13:10;;;;;;;0.60;0.30;;;;;;;;;;4842993;29;20459;-74
2023/12/07 07:15:40;;;;;;;10.37;4.30;;;;;;;;;;4843325;29;20452;-73
2023/12/07 07:18:08;;;;;;;3.97;2.10;;;;;;;;;;4848322;29;20504;-74
2023/12/07 07:20:36;;;;;;;2.40;1.40;;;;;;;;;;4849985;29;20468;-74
2023/12/07 07:23:04;;;;;;;1.00;0.50;;;3.10;99.90;;;;;;4834408;29;20531;-75
2023/12/07 07:25:32;;;;;;;0.60;0.20;;;3.10;99.90;;;;;;4837926;29;20535;-73
2023/12/07 07:28:00;;;;;;;0.60;0.10;;;3.20;99.90;;;;;;4839093;29;20833;-72
2023/12/07 07:30:29;;;;;;;0.60;0.13;;;;;;;;;;4846542;29;20452;-74
2023/12/07 07:32:58;;;;;;;0.60;0.10;;;3.20;99.90;;;;;;4846028;29;20491;-72
2023/12/07 07:35:27;;;;;;;0.60;0.10;;;3.20;99.90;;;;;;4846053;29;20448;-72
2023/12/07 07:37:55;;;;;;;0.60;0.10;;;3.20;99.90;;;;;;4842507;29;20492;-74
2023/12/07 07:40:24;;;;;;;0.60;0.10;;;;;;;;;;4837740;29;20455;-74
2023/12/07 07:42:52;;;;;;;0.60;0.10;;;3.30;99.90;;;;;;4838519;29;20837;-72
2023/12/07 07:45:20;;;;;;;1.03;0.60;;;3.30;99.90;;;;;;4842432;29;20909;-74
2023/12/07 07:47:48;;;;;;;0.60;0.10;;;3.40;99.90;;;;;;4842287;29;20527;-72
2023/12/07 07:50:17;;;;;;;0.60;0.10;;;3.40;99.90;;;;;;4840019;29;20844;-72
2023/12/07 07:52:45;;;;;;;1.13;1.03;;;3.40;99.90;;;;;;4829944;29;20494;-74
2023/12/07 07:55:13;;;;;;;0.60;0.10;;;3.40;99.90;;;;;;4840293;29;20539;-72
2023/12/07 07:57:42;;;;;;;0.60;0.20;;;3.40;99.90;;;;;;4835425;29;20536;-74
2023/12/07 08:00:13;;;;;;;0.60;0.40;;;;;;;;;;4841318;29;20452;-72
2023/12/07 08:02:40;;;;;;;1.27;1.17;;;3.50;99.90;;;;;;4841559;29;20452;-72
2023/12/07 08:05:09;;;;;;;0.60;0.10;;;3.40;99.90;;;;;;4841742;29;20498;-74
2023/12/07 08:07:38;;;;;;;0.60;0.10;;;3.40;99.90;;;;;;4838374;29;20502;-74
2023/12/07 08:10:08;;;;;;;0.60;0.10;;;3.40;99.90;;;;;;4836843;29;20452;-74
2023/12/07 08:12:37;;;;;;;0.60;0.10;;;3.50;99.90;;;;;;4842196;29;20464;-74
2023/12/07 08:15:10;;;;;;;0.60;0.10;;;;;;;;;;4843483;29;20472;-76
2023/12/07 08:17:40;;;;;;;0.60;0.10;;;3.40;99.90;;;;;;4845083;29;20468;-72
2023/12/07 08:20:10;;;;;;;0.60;0.10;;;3.40;99.90;;;;;;4845202;29;20444;-74
2023/12/07 08:22:40;;;;;;;0.60;0.10;;;3.40;99.90;;;;;;4844934;29;20462;-74
2023/12/07 08:25:09;;;;;;;1.80;1.70;;;3.50;99.90;;;;;;4846299;29;20498;-70
2023/12/07 08:27:39;;;;;;;0.60;0.20;;;3.50;99.90;;;;;;4844763;29;20471;-72
2023/12/07 08:30:09;;;;;;;10.77;5.40;;;3.50;99.90;;;;;;4846229;29;20498;-73
2023/12/07 08:32:37;;;;;;;0.60;0.10;;;3.60;99.90;;;;;;4845867;29;20498;-72
2023/12/07 08:35:06;;;;;;;0.80;0.53;;;3.60;99.90;;;;;;4837183;29;20464;-73
2023/12/07 08:37:34;;;;;;;0.60;0.10;;;3.60;99.90;;;;;;4843058;29;20491;-71
2023/12/07 08:40:04;;;;;;;0.60;0.10;;;;;;;;;;4845295;29;20478;-75
2023/12/07 08:42:33;;;;;;;0.60;0.10;;;;;;;;;;4845155;29;20452;-72
2023/12/07 08:45:00;;;;;;;0.60;0.10;;;3.70;99.90;;;;;;4842577;29;20765;-71
2023/12/07 08:47:30;;;;;;;0.60;0.10;;;3.70;99.90;;;;;;4836736;29;20484;-72
2023/12/07 08:49:58;;;;;;;0.60;0.10;;;;;;;;;;4845193;29;20455;-73
2023/12/07 08:52:27;;;;;;;0.60;0.10;;;3.70;99.90;;;;;;4845084;29;20452;-72
2023/12/07 08:55:15;;;;;;;2.67;2.47;;;3.70;99.90;;;;;;4839477;29;20967;-70
2023/12/07 08:57:43;;;;;;;0.60;0.10;;;3.70;99.90;;;;;;4838960;29;20490;-72
2023/12/07 09:00:12;;;;;;;0.60;0.10;;;3.60;99.90;;;;;;4844814;29;20456;-72
2023/12/07 09:02:41;;;;;;;0.77;0.70;;;3.70;99.90;;;;;;4845298;29;20452;-72
2023/12/07 09:05:15;;;;;;;0.60;0.10;;;3.80;99.90;;;;;;4844719;29;20487;-74
2023/12/07 09:07:44;;;;;;;0.60;0.10;;;3.90;99.90;;;;;;4845464;29;20895;-70
2023/12/07 09:10:13;;;;;;;4.30;0.97;;;3.90;99.90;;;;;;4842819;29;20444;-71
2023/12/07 09:12:41;;;;;;;0.70;0.50;;;3.90;99.90;;;;;;4842227;29;20811;-72
2023/12/07 09:15:10;;;;;;;0.60;0.20;;;4.00;99.90;;;;;;4844217;29;20488;-71
2023/12/07 09:17:39;;;;;;;3.37;1.90;;;4.00;99.90;;;;;;4846956;29;20504;-71
2023/12/07 09:20:11;;;;;;;0.60;0.30;;;4.00;99.90;;;;;;4849032;29;20513;-72
2023/12/07 09:22:41;;;;;;;0.60;0.10;;;4.10;99.90;;;;;;4848888;29;20488;-72
2023/12/07 09:25:09;;;;;;;0.60;0.10;;;4.20;99.90;;;;;;4849230;29;20520;-73
2023/12/07 09:27:40;;;;;;;0.60;0.10;;;;;;;;;;4842472;29;21001;-72
2023/12/07 09:30:10;;;;;;;0.60;0.10;;;;;;;;;;4846536;29;20906;-72
2023/12/07 09:32:40;;;;;;;0.60;0.10;;;4.20;99.90;;;;;;4842861;29;20986;-71
2023/12/07 09:35:14;;;;;;;0.60;0.30;;;4.20;99.90;;;;;;4842103;29;20448;-71
2023/12/07 09:37:43;;;;;;;0.60;0.20;;;;;;;;;;4844769;29;20514;-71
2023/12/07 09:40:17;;;;;;;0.60;0.10;;;;;;;;;;4843670;29;20536;-72
2023/12/07 09:42:47;;;;;;;0.60;0.10;;;4.20;99.90;;;;;;4844658;29;20463;-72
2023/12/07 09:45:18;;;;;;;1.57;1.47;;;;;;;;;;4843495;29;20487;-72
2023/12/07 09:47:48;;;;;;;0.70;0.67;;;4.40;99.90;;;;;;4838087;29;20484;-72
2023/12/07 09:50:18;;;;;;;0.60;0.10;;;4.50;99.90;;;;;;4843716;29;20458;-72
2023/12/07 09:52:49;;;;;;;0.60;0.10;;;4.50;99.90;;;;;;4843300;29;20948;-72
2023/12/07 09:55:31;;;;;;;0.60;0.10;;;4.60;99.90;;;;;;4836053;29;20859;-73
2023/12/07 09:58:01;;;;;;;0.60;0.10;;;4.70;99.90;;;;;;4842784;29;20480;-72
2023/12/07 10:00:30;;;;;;;0.60;0.20;;;4.80;99.90;;;;;;4843762;29;20452;-72
2023/12/07 10:02:58;;;;;;;11.33;5.00;;;4.90;99.90;;;;;;4835632;29;20464;-73
2023/12/07 10:05:26;;;;;;;0.60;0.10;;;;;;;;;;4847710;29;20547;-73
2023/12/07 10:07:55;;;;;;;0.60;0.20;;;;;;;;;;4851371;29;20547;-72
2023/12/07 10:10:23;;;;;;;0.60;0.20;;;;;;;;;;4848693;29;20452;-72
2023/12/07 10:12:53;;;;;;;1.00;0.83;;;;;;;;;;4844642;29;20451;-73
2023/12/07 10:15:23;;;;;;;2.17;2.00;;;4.80;99.90;;;;;;4844193;29;20532;-72
2023/12/07 10:17:53;;;;;;;4.20;4.00;;;4.80;99.90;;;;;;4843785;29;20479;-73
2023/12/07 10:20:23;;;;;;;0.60;0.10;;;4.70;99.90;;;;;;4843687;29;20471;-72
2023/12/07 10:23:03;;;;;;;0.60;0.20;;;;;;;;;;4838510;29;20459;-72
2023/12/07 10:25:31;;;;;;;0.60;0.10;;;4.80;99.90;;;;;;4843498;29;20487;-73
2023/12/07 10:27:59;;;;;;;0.60;0.10;;;4.80;99.90;;;;;;4839217;29;20476;-71
2023/12/07 10:30:28;;;;;;;0.60;0.10;;;4.80;99.90;;;;;;4837363;29;20799;-72
2023/12/07 10:32:56;;;;;;;0.60;0.30;;;;;;;;;;4845265;29;20532;-71
2023/12/07 10:35:25;;;;;;;0.83;0.70;;;4.90;99.90;;;;;;4846655;29;20861;-72
2023/12/07 10:37:53;;;;;;;0.60;0.10;;;4.90;99.90;;;;;;4840600;29;20479;-71
2023/12/07 10:40:21;;;;;;;0.80;0.60;;;4.90;99.90;;;;;;4846146;29;20464;-73
2023/12/07 10:42:50;;;;;;;0.60;0.10;;;;;;;;;;4843183;29;20818;-73
2023/12/07 10:45:19;;;;;;;0.70;0.37;;;4.90;99.90;;;;;;4842331;29;20460;-74
2023/12/07 10:47:50;;;;;;;0.60;0.10;;;4.80;99.90;;;;;;4842278;29;20494;-72
2023/12/07 10:50:24;;;;;;;0.60;0.10;;;4.70;99.90;;;;;;4843141;29;20562;-72
2023/12/07 10:52:54;;;;;;;0.70;0.40;;;4.60;99.90;;;;;;4844154;29;20478;-73
2023/12/07 10:55:23;;;;;;;0.60;0.20;;;;;;;;;;4844445;29;20452;-72
2023/12/07 10:57:53;;;;;;;1.70;1.60;;;4.60;99.90;;;;;;4844884;29;20483;-71
2023/12/07 11:00:23;;;;;;;0.60;0.10;;;4.60;99.90;;;;;;4844673;29;20524;-71
2023/12/07 11:03:09;;;;;;;0.60;0.10;;;4.70;99.90;;;;;;4843922;29;20452;-72
2023/12/07 11:05:38;;;;;;;0.60;0.10;;;4.70;99.90;;;;;;4837118;29;20848;-73
2023/12/07 11:08:10;;;;;;;0.60;0.20;;;4.70;99.90;;;;;;4843729;29;20500;-73
2023/12/07 11:10:44;;;;;;;1.53;1.17;;;4.70;99.90;;;;;;4845044;29;20452;-71
2023/12/07 11:13:19;;;;;;;0.60;0.10;;;4.80;99.90;;;;;;4843377;29;20455;-72
2023/12/07 11:15:47;;;;;;;0.60;0.10;;;4.80;99.90;;;;;;4838918;29;20959;-71
2023/12/07 11:18:17;;;;;;;0.93;0.43;;;4.90;99.90;;;;;;4839750;29;20480;-72
2023/12/07 11:20:47;;;;;;;0.60;0.17;;;4.90;99.90;;;;;;4841935;29;20914;-72
2023/12/07 11:23:18;;;;;;;1.40;0.70;;;;;;;;;;4842586;29;20855;-72
2023/12/07 11:25:46;;;;;;;0.60;0.17;;;;;;;;;;4842083;29;20556;-72
2023/12/07 11:28:15;;;;;;;0.60;0.10;;;4.90;99.90;;;;;;4837985;29;21060;-72
2023/12/07 11:30:45;;;;;;;0.70;0.30;;;5.00;99.90;;;;;;4836352;29;20904;-76
2023/12/07 11:33:17;;;;;;;0.60;0.10;;;5.00;99.90;;;;;;4844417;29;20547;-72
2023/12/07 11:36:07;;;;;;;5.20;2.73;;;5.10;99.90;;;;;;4836843;29;20460;-74
2023/12/07 11:38:36;;;;;;;1.17;1.07;;;5.10;99.90;;;;;;4836383;29;20455;-74
2023/12/07 11:41:05;;;;;;;0.60;0.20;;;5.20;99.90;;;;;;4843018;29;20464;-72
2023/12/07 11:43:45;;;;;;;0.60;0.10;;;5.10;99.90;;;;;;4842862;29;20480;-72
2023/12/07 11:46:17;;;;;;;1.10;0.50;;;5.10;99.90;;;;;;4839828;29;20503;-73
2023/12/07 11:48:50;;;;;;;13.53;3.03;;;4.90;99.90;;;;;;4842873;29;20547;-72
2023/12/07 11:51:18;;;;;;;1.70;1.60;;;4.80;99.90;;;;;;4845140;29;20467;-72
2023/12/07 11:53:48;;;;;;;2.20;2.10;;;4.80;99.90;;;;;;4840363;29;20460;-72
2023/12/07 11:56:20;;;;;;;0.60;0.10;;;4.90;99.90;;;;;;4845677;29;20486;-72
2023/12/07 11:58:49;;;;;;;0.70;0.50;;;4.90;99.90;;;;;;4844758;29;20483;-71
2023/12/07 12:01:18;;;;;;;15.27;8.13;;;4.90;99.90;;;;;;4839403;29;20512;-71
2023/12/07 12:03:46;;;;;;;0.60;0.10;;;;;;;;;;4841730;29;20467;-72
2023/12/07 12:06:15;;;;;;;2.70;1.03;;;5.00;99.90;;;;;;4836370;29;20523;-73
2023/12/07 12:08:43;;;;;;;1.03;0.93;;;5.10;99.90;;;;;;4845274;29;20459;-73
2023/12/07 12:11:12;;;;;;;0.60;0.10;;;;;;;;;;4845295;29;20463;-71
2023/12/07 12:13:40;;;;;;;0.60;0.10;;;;;;;;;;4845308;29;20526;-73
2023/12/07 12:16:09;;;;;;;1.10;0.50;;;5.20;99.90;;;;;;4847019;29;20455;-74
2023/12/07 12:18:37;;;;;;;1.63;0.83;;;5.20;99.90;;;;;;4844272;29;20547;-71
2023/12/07 12:21:09;;;;;;;1.97;1.87;;;5.30;99.90;;;;;;4843205;29;20467;-72
2023/12/07 12:23:39;;;;;;;0.60;0.10;;;5.20;99.90;;;;;;4845047;29;20495;-72
2023/12/07 12:26:09;;;;;;;0.80;0.20;;;5.20;99.90;;;;;;4842307;29;20451;-71
2023/12/07 12:28:42;;;;;;;11.73;10.63;;;;;;;;;;4846633;29;20997;-72
2023/12/07 12:31:12;;;;;;;0.60;0.10;;;;;;;;;;4846055;29;20574;-72
2023/12/07 12:33:40;;;;;;;0.60;0.20;;;5.10;99.90;;;;;;4838534;29;20447;-71
2023/12/07 12:36:10;;;;;;;0.93;0.83;;;5.00;99.90;;;;;;4844843;29;20463;-73
2023/12/07 12:38:41;;;;;;;0.60;0.20;;;;;;;;;;4847120;29;20811;-75
2023/12/07 12:41:12;;;;;;;0.60;0.20;;;;;;;;;;4846152;29;20479;-70
2023/12/07 12:43:42;;;;;;;1.40;1.30;;;5.10;99.90;;;;;;4845867;29;20456;-72
2023/12/07 12:46:11;;;;;;;0.80;0.77;;;5.20;99.90;;;;;;4846180;29;20473;-73
2023/12/07 12:48:53;;;;;;;0.60;0.10;;;;;;;;;;4846049;29;20474;-71
2023/12/07 12:51:22;;;;;;;0.60;0.20;;;5.20;99.90;;;;;;4845454;29;20462;-71
2023/12/07 12:53:52;;;;;;;0.60;0.10;;;5.30;99.90;;;;;;4839360;29;20497;-71
2023/12/07 12:56:21;;;;;;;1.03;0.37;;;5.30;99.90;;;;;;4848152;29;20492;-71
2023/12/07 12:58:50;;;;;;;0.70;0.50;;;5.20;99.90;;;;;;4849845;29;20456;-72
2023/12/07 13:01:18;;;;;;;2.80;2.47;;;;;;;;;;4849299;29;20895;-71
2023/12/07 13:03:47;;;;;;;0.60;0.27;;;;;;;;;;4847474;29;20513;-75
2023/12/07 13:06:15;;;;;;;0.80;0.50;;;5.00;99.90;;;;;;4844614;29;20539;-73
2023/12/07 13:08:45;;;;;;;1.30;1.20;;;5.00;99.90;;;;;;4841866;29;21055;-72
2023/12/07 13:11:17;;;;;;;0.70;0.43;;;5.00;99.90;;;;;;4841066;29;20535;-75
2023/12/07 13:13:47;;;;;;;0.60;0.10;;;4.90;99.90;;;;;;4838181;29;20490;-73
2023/12/07 13:16:16;;;;;;;1.47;1.37;;;5.00;99.90;;;;;;4843756;29;20459;-70
2023/12/07 13:18:44;;;;;;;1.20;1.03;;;5.00;99.90;;;;;;4843173;29;20532;-72
2023/12/07 13:21:14;;;;;;;0.70;0.50;;;5.00;99.90;;;;;;4843515;29;20487;-70
2023/12/07 13:23:45;;;;;;;0.60;0.10;;;4.90;99.90;;;;;;4836654;29;20928;-70
2023/12/07 13:26:14;;;;;;;0.70;0.20;;;5.00;99.90;;;;;;4841853;29;20472;-71